Detroit, Michigan
Traffic Map
Current Weather Conditions
Detroit, Michigan
Broken Clouds
Broken Clouds
68°
Feels Like: 68°
Wind Chill: 68° Ceiling: 25000
Heat Index: 68° Visibility: 12mi
Dew Point: 66° Wind: 3mph
Humidity: 94% Direction: 250° (WSW)
Pressure: 30.03in Gusts: 0mph
Raw Report DataCYQG 310600Z 25003KT 12SM BKN250 20/19 A3003 RMK CI5 SLP167 DENSITY ALT 1200FT
Traffic Incident Summary
Active as of:
Severity:
Category:
InformationThere was an issue retrieving the traffic information for this location. Please try a different location or try again shortly.
Advertisements
Track Severe Weather on mobile